createdAt,value
2019-02-28T00:00:46.480Z,-0.16
2019-02-28T00:03:15.088Z,-0.16
2019-02-28T00:05:43.718Z,-0.21
2019-02-28T00:08:12.333Z,-0.25
2019-02-28T00:10:40.894Z,-0.31
2019-02-28T00:13:09.432Z,-0.31
2019-02-28T00:15:37.935Z,-0.28
2019-02-28T00:18:06.552Z,-0.32
2019-02-28T00:20:36.605Z,-0.37
2019-02-28T00:23:05.426Z,-0.38
2019-02-28T00:25:37.781Z,-0.47
2019-02-28T00:28:04.558Z,-0.49
2019-02-28T00:30:33.092Z,-0.52
2019-02-28T00:33:01.630Z,-0.55
2019-02-28T00:35:30.178Z,-0.60
2019-02-28T00:37:58.715Z,-0.64
2019-02-28T00:40:27.288Z,-0.61
2019-02-28T00:42:55.913Z,-0.60
2019-02-28T00:45:24.523Z,-0.67
2019-02-28T00:47:53.067Z,-0.72
2019-02-28T00:50:21.609Z,-0.73
2019-02-28T00:52:50.152Z,-0.81
2019-02-28T00:55:18.750Z,-0.81
2019-02-28T00:57:47.372Z,-0.80
2019-02-28T01:00:17.890Z,-0.86
2019-02-28T01:02:52.146Z,-0.90
2019-02-28T01:05:16.892Z,-0.92
2019-02-28T01:07:48.118Z,-0.97
2019-02-28T01:10:16.061Z,-1.06
2019-02-28T01:12:44.603Z,-1.09
2019-02-28T01:15:15.321Z,-1.14
2019-02-28T01:17:44.028Z,-1.12
2019-02-28T01:20:16.142Z,-1.11
2019-02-28T01:22:43.522Z,-1.17
2019-02-28T01:25:14.403Z,-1.20
2019-02-28T01:27:43.034Z,-1.15
2019-02-28T01:30:15.902Z,-1.15
2019-02-28T01:32:49.732Z,-1.14
2019-02-28T01:35:14.974Z,-1.19
2019-02-28T01:37:43.630Z,-1.26
2019-02-28T01:40:14.135Z,-1.28
2019-02-28T01:42:42.746Z,-1.23
2019-02-28T01:45:13.176Z,-1.28
2019-02-28T01:47:42.003Z,-1.34
2019-02-28T01:50:12.314Z,-1.33
2019-02-28T01:52:44.464Z,-1.31
2019-02-28T01:55:11.784Z,-1.33
2019-02-28T01:57:43.761Z,-1.34
2019-02-28T02:00:16.489Z,-1.37
2019-02-28T02:02:45.050Z,-1.42
2019-02-28T02:05:16.860Z,-1.44
2019-02-28T02:07:44.182Z,-1.41
2019-02-28T02:10:21.349Z,-1.44
2019-02-28T02:12:50.839Z,-1.50
2019-02-28T02:15:19.589Z,-1.53
2019-02-28T02:17:48.198Z,-1.52
2019-02-28T02:20:17.409Z,-1.55
2019-02-28T02:22:46.140Z,-1.61
2019-02-28T02:25:15.059Z,-1.64
2019-02-28T02:27:44.551Z,-1.66
2019-02-28T02:30:16.427Z,-1.74
2019-02-28T02:32:45.148Z,-1.76
2019-02-28T02:35:13.807Z,-1.73
2019-02-28T02:37:42.436Z,-1.70
2019-02-28T02:40:13.992Z,-1.67
2019-02-28T02:42:47.681Z,-1.66
2019-02-28T02:45:16.153Z,-1.66
2019-02-28T02:47:44.898Z,-1.70
2019-02-28T02:50:15.496Z,-1.71
2019-02-28T02:52:44.206Z,-1.79
2019-02-28T02:55:13.526Z,-1.79
2019-02-28T02:57:42.286Z,-1.78
2019-02-28T03:00:15.076Z,-1.84
2019-02-28T03:02:44.056Z,-1.91
2019-02-28T03:05:12.759Z,-1.97
2019-02-28T03:07:41.306Z,-1.99
2019-02-28T03:10:19.182Z,-2.00
2019-02-28T03:12:47.498Z,-2.02
2019-02-28T03:15:21.368Z,-2.04
2019-02-28T03:17:48.842Z,-2.03
2019-02-28T03:20:18.017Z,-2.02
2019-02-28T03:22:46.688Z,-2.04
2019-02-28T03:25:16.320Z,-2.05
2019-02-28T03:27:45.049Z,-2.08
2019-02-28T03:30:28.482Z,-2.04
2019-02-28T03:32:50.994Z,-2.00
2019-02-28T03:35:19.649Z,-1.98
2019-02-28T03:37:48.167Z,-2.00
2019-02-28T03:40:16.841Z,-2.00
2019-02-28T03:42:45.454Z,-2.06
2019-02-28T03:45:15.637Z,-2.08
2019-02-28T03:47:44.272Z,-2.04
2019-02-28T03:50:13.312Z,-2.08
2019-02-28T03:52:44.177Z,-2.12
2019-02-28T03:55:13.821Z,-2.13
2019-02-28T03:57:42.597Z,-2.14
2019-02-28T04:00:22.085Z,-2.13
2019-02-28T04:02:56.659Z,-2.15
2019-02-28T04:05:26.656Z,-2.16
2019-02-28T04:07:53.479Z,-2.19
2019-02-28T04:10:22.484Z,-2.22
2019-02-28T04:12:51.545Z,-2.23
2019-02-28T04:15:20.968Z,-2.25
2019-02-28T04:17:49.621Z,-2.26
2019-02-28T04:20:18.393Z,-2.26
2019-02-28T04:22:47.128Z,-2.27
2019-02-28T04:25:22.472Z,-2.34
2019-02-28T04:27:46.053Z,-2.34
2019-02-28T04:30:15.426Z,-2.34
2019-02-28T04:32:44.039Z,-2.39
2019-02-28T04:35:12.766Z,-2.40
2019-02-28T04:37:46.540Z,-2.44
2019-02-28T04:40:14.723Z,-2.41
2019-02-28T04:42:43.339Z,-2.40
2019-02-28T04:45:13.473Z,-2.41
2019-02-28T04:47:42.224Z,-2.42
2019-02-28T04:50:12.257Z,-2.42
2019-02-28T04:52:46.774Z,-2.37
2019-02-28T04:55:11.618Z,-2.36
2019-02-28T04:57:40.236Z,-2.35
2019-02-28T05:00:11.778Z,-2.35
2019-02-28T05:02:40.306Z,-2.38
2019-02-28T05:05:12.193Z,-2.42
2019-02-28T05:07:39.424Z,-2.41
2019-02-28T05:10:09.567Z,-2.44
2019-02-28T05:12:39.746Z,-2.50
2019-02-28T05:15:13.935Z,-2.57
2019-02-28T05:17:42.657Z,-2.64
2019-02-28T05:20:12.276Z,-2.68
2019-02-28T05:22:41.027Z,-2.69
2019-02-28T05:25:10.609Z,-2.70
2019-02-28T05:27:39.197Z,-2.74
2019-02-28T05:30:19.435Z,-2.76
2019-02-28T05:32:46.008Z,-2.78
2019-02-28T05:35:14.659Z,-2.75
2019-02-28T05:37:46.906Z,-2.73
2019-02-28T05:40:14.803Z,-2.71
2019-02-28T05:42:43.461Z,-2.69
2019-02-28T05:45:14.859Z,-2.65
2019-02-28T05:47:46.632Z,-2.63
2019-02-28T05:50:16.577Z,-2.60
2019-02-28T05:52:43.555Z,-2.61
2019-02-28T05:55:12.265Z,-2.60
2019-02-28T05:57:43.551Z,-2.54
2019-02-28T06:00:17.375Z,-2.53
2019-02-28T06:02:45.986Z,-2.48
2019-02-28T06:05:14.532Z,-2.44
2019-02-28T06:07:43.171Z,-2.48
2019-02-28T06:10:13.617Z,-2.44
2019-02-28T06:12:43.719Z,-2.39
2019-02-28T06:15:16.518Z,-2.40
2019-02-28T06:17:45.129Z,-2.41
2019-02-28T06:20:16.544Z,-2.36
2019-02-28T06:22:44.606Z,-2.37
2019-02-28T06:25:22.845Z,-2.30
2019-02-28T06:27:49.193Z,-2.29
2019-02-28T06:30:16.081Z,-2.31
2019-02-28T06:32:44.649Z,-2.28
2019-02-28T06:35:17.278Z,-2.27
2019-02-28T06:37:44.487Z,-2.22
2019-02-28T06:40:14.998Z,-2.23
2019-02-28T06:42:46.794Z,-2.18
2019-02-28T06:45:20.547Z,-2.11
2019-02-28T06:47:50.121Z,-2.11
2019-02-28T06:50:18.891Z,-2.08
2019-02-28T06:52:47.542Z,-2.01
2019-02-28T06:55:26.663Z,-1.92
2019-02-28T06:57:55.281Z,-1.77
2019-02-28T07:00:23.856Z,-1.63
2019-02-28T07:02:52.355Z,-1.51
2019-02-28T07:05:24.277Z,-1.41
2019-02-28T07:07:51.259Z,-1.36
2019-02-28T07:10:19.956Z,-1.35
2019-02-28T07:12:48.519Z,-1.32
2019-02-28T07:15:20.476Z,-1.29
2019-02-28T07:17:47.616Z,-1.23
2019-02-28T07:20:18.298Z,-1.17
2019-02-28T07:22:46.844Z,-1.11
2019-02-28T07:25:15.471Z,-1.01
2019-02-28T07:27:44.039Z,-0.94
2019-02-28T07:30:19.292Z,-0.88
2019-02-28T07:32:48.302Z,-0.76
2019-02-28T07:35:16.912Z,-0.60
2019-02-28T07:37:45.552Z,-0.50
2019-02-28T07:40:17.265Z,-0.35
2019-02-28T07:42:46.238Z,-0.27
2019-02-28T07:45:15.454Z,-0.16
2019-02-28T07:47:44.083Z,-0.02
2019-02-28T07:50:16.868Z,0.06
2019-02-28T07:52:45.496Z,0.14
2019-02-28T07:55:21.216Z,0.21
2019-02-28T07:57:54.287Z,0.32
2019-02-28T08:00:21.472Z,0.36
2019-02-28T08:02:50.491Z,0.43
2019-02-28T08:05:19.193Z,0.62
2019-02-28T08:07:52.121Z,1.04
2019-02-28T08:10:29.242Z,1.41
2019-02-28T08:12:57.849Z,1.67
2019-02-28T08:15:28.369Z,1.87
2019-02-28T08:17:56.987Z,1.99
2019-02-28T08:20:25.523Z,2.09
2019-02-28T08:22:56.500Z,2.22
2019-02-28T08:25:24.619Z,2.39
2019-02-28T08:27:53.234Z,2.64
2019-02-28T08:30:33.258Z,2.93
2019-02-28T08:33:01.793Z,3.41
2019-02-28T08:35:33.997Z,3.98
2019-02-28T08:38:00.772Z,4.48
2019-02-28T08:40:29.686Z,4.76
2019-02-28T08:42:58.285Z,4.93
2019-02-28T08:45:32.716Z,5.11
2019-02-28T08:47:57.189Z,5.46
2019-02-28T08:50:26.545Z,5.99
2019-02-28T08:52:59.936Z,6.40
2019-02-28T08:55:29.383Z,6.65
2019-02-28T08:58:05.031Z,6.89
2019-02-28T09:00:32.648Z,7.14
2019-02-28T09:03:00.718Z,7.85
2019-02-28T09:05:32.145Z,9.46
2019-02-28T09:08:00.751Z,11.26
2019-02-28T09:10:29.364Z,12.86
2019-02-28T09:12:57.995Z,14.31
2019-02-28T09:15:30.201Z,15.72
2019-02-28T09:17:59.477Z,16.86
2019-02-28T09:20:27.227Z,17.63
2019-02-28T09:23:01.538Z,18.68
2019-02-28T09:25:26.992Z,19.53
2019-02-28T09:27:55.650Z,20.35
2019-02-28T09:30:29.623Z,21.00
2019-02-28T09:32:57.775Z,21.66
2019-02-28T09:35:26.351Z,22.24
2019-02-28T09:37:54.982Z,23.08
2019-02-28T09:40:28.279Z,23.98
2019-02-28T09:42:53.923Z,24.67
2019-02-28T09:45:30.712Z,25.30
2019-02-28T09:48:01.877Z,25.74
2019-02-28T09:50:29.635Z,26.70
2019-02-28T09:52:58.237Z,27.39
2019-02-28T09:55:26.812Z,27.37
2019-02-28T09:57:57.441Z,26.95
2019-02-28T10:00:27.830Z,27.60
2019-02-28T10:02:56.460Z,27.95
2019-02-28T10:05:25.172Z,27.93
2019-02-28T10:08:01.554Z,27.67
2019-02-28T10:10:31.167Z,26.95
2019-02-28T10:12:59.785Z,27.23
2019-02-28T10:15:28.463Z,27.23
2019-02-28T10:17:57.110Z,26.79
2019-02-28T10:20:30.031Z,25.89
2019-02-28T10:22:58.632Z,26.82
2019-02-28T10:25:27.237Z,27.20
2019-02-28T10:28:01.728Z,27.77
2019-02-28T10:30:31.796Z,28.33
2019-02-28T10:32:57.457Z,28.47
2019-02-28T10:35:26.138Z,28.56
2019-02-28T10:37:58.418Z,28.05
2019-02-28T10:40:27.487Z,27.98
2019-02-28T10:42:56.099Z,28.21
2019-02-28T10:45:25.289Z,27.95
2019-02-28T10:47:53.898Z,28.21
2019-02-28T10:50:32.149Z,28.29
2019-02-28T10:53:04.023Z,28.58
2019-02-28T10:55:28.771Z,28.79
2019-02-28T10:57:57.392Z,28.74
2019-02-28T11:00:32.673Z,29.06
2019-02-28T11:03:01.273Z,29.59
2019-02-28T11:05:37.917Z,29.28
2019-02-28T11:08:09.652Z,28.87
2019-02-28T11:10:40.188Z,28.94
2019-02-28T11:13:11.810Z,28.71
2019-02-28T11:15:40.555Z,29.22
2019-02-28T11:18:10.060Z,29.30
2019-02-28T11:20:39.773Z,29.16
2019-02-28T11:23:14.323Z,28.92
2019-02-28T11:25:39.984Z,29.03
2019-02-28T11:28:08.580Z,28.27
2019-02-28T11:30:37.199Z,27.26
2019-02-28T11:33:06.251Z,27.40
2019-02-28T11:35:35.057Z,27.44
2019-02-28T11:38:05.005Z,28.13
2019-02-28T11:40:34.233Z,27.44
2019-02-28T11:43:03.978Z,26.90
2019-02-28T11:45:37.975Z,25.92
2019-02-28T11:48:08.886Z,25.46
2019-02-28T11:50:41.213Z,26.16
2019-02-28T11:53:07.865Z,26.25
2019-02-28T11:55:36.497Z,24.41
2019-02-28T11:58:05.106Z,23.51
2019-02-28T12:00:36.753Z,23.63
2019-02-28T12:03:05.989Z,23.46
2019-02-28T12:05:34.783Z,23.59
2019-02-28T12:08:09.247Z,23.28
2019-02-28T12:10:33.894Z,23.14
2019-02-28T12:13:02.567Z,23.86
2019-02-28T12:15:38.193Z,24.97
2019-02-28T12:18:06.559Z,25.41
2019-02-28T12:20:35.196Z,25.48
2019-02-28T12:23:03.918Z,25.25
2019-02-28T12:25:32.740Z,25.28
2019-02-28T12:28:02.833Z,25.81
2019-02-28T12:30:33.654Z,26.24
2019-02-28T12:33:02.279Z,26.38
2019-02-28T12:35:37.437Z,26.78
2019-02-28T12:38:01.414Z,27.58
2019-02-28T12:40:32.202Z,27.55
2019-02-28T12:45:47.378Z,27.61
2019-02-28T12:48:16.217Z,27.73
2019-02-28T12:50:44.749Z,27.83
2019-02-28T12:53:13.325Z,27.19
2019-02-28T12:55:42.027Z,27.26
2019-02-28T12:58:10.571Z,26.71
2019-02-28T13:00:41.019Z,26.92
2019-02-28T13:03:09.801Z,26.54
2019-02-28T13:05:38.436Z,25.91
2019-02-28T13:08:07.318Z,25.78
2019-02-28T13:10:36.246Z,26.04
2019-02-28T13:13:07.396Z,25.91
2019-02-28T13:15:35.927Z,25.96
2019-02-28T13:18:08.977Z,26.10
2019-02-28T13:20:38.787Z,26.19
2019-02-28T13:23:07.414Z,26.03
2019-02-28T13:25:36.048Z,25.32
2019-02-28T13:28:05.959Z,25.54
2019-02-28T13:30:34.617Z,25.63
2019-02-28T13:33:03.161Z,25.45
2019-02-28T13:35:37.214Z,25.66
2019-02-28T13:38:05.848Z,25.74
2019-02-28T13:40:34.402Z,25.50
2019-02-28T13:43:03.023Z,25.46
2019-02-28T13:45:31.719Z,25.44
2019-02-28T13:48:00.276Z,25.40
2019-02-28T13:50:33.643Z,25.04
2019-02-28T13:53:15.743Z,24.66
2019-02-28T13:55:32.645Z,24.71
2019-02-28T13:58:01.364Z,24.53
2019-02-28T14:00:34.833Z,24.85
2019-02-28T14:03:11.031Z,24.87
2019-02-28T14:05:41.467Z,24.54
2019-02-28T14:08:12.173Z,24.54
2019-02-28T14:10:40.753Z,24.36
2019-02-28T14:13:09.457Z,24.46
2019-02-28T14:15:47.941Z,24.73
2019-02-28T14:18:16.717Z,24.86
2019-02-28T14:20:45.334Z,24.30
2019-02-28T14:23:13.976Z,24.19
2019-02-28T14:25:42.521Z,24.02
2019-02-28T14:28:11.154Z,23.70
2019-02-28T14:30:39.881Z,22.79
2019-02-28T14:33:08.888Z,22.27
2019-02-28T14:35:38.620Z,21.97
2019-02-28T14:38:07.542Z,21.01
2019-02-28T14:40:36.147Z,20.75
2019-02-28T14:43:04.769Z,20.47
2019-02-28T14:45:39.118Z,20.43
2019-02-28T14:48:06.546Z,20.22
2019-02-28T14:50:35.202Z,19.97
2019-02-28T14:53:03.816Z,19.66
2019-02-28T14:55:33.496Z,19.83
2019-02-28T14:58:02.333Z,19.90
2019-02-28T15:00:35.554Z,19.77
2019-02-28T15:03:04.383Z,18.91
2019-02-28T15:05:36.292Z,18.71
2019-02-28T15:08:05.204Z,18.54
2019-02-28T15:10:35.172Z,18.25
2019-02-28T15:13:04.911Z,17.99
2019-02-28T15:15:36.112Z,17.56
2019-02-28T15:18:04.468Z,17.09
2019-02-28T15:20:33.399Z,16.68
2019-02-28T15:23:02.126Z,16.23
2019-02-28T15:25:31.140Z,15.74
2019-02-28T15:27:59.784Z,15.55
2019-02-28T15:30:33.987Z,15.32
2019-02-28T15:33:03.453Z,14.94
2019-02-28T15:35:32.049Z,14.71
2019-02-28T15:38:00.739Z,14.35
2019-02-28T15:40:32.286Z,14.22
2019-02-28T15:43:00.890Z,13.95
2019-02-28T15:45:29.539Z,13.73
2019-02-28T15:47:59.007Z,13.64
2019-02-28T15:50:28.413Z,13.51
2019-02-28T15:52:57.547Z,13.47
2019-02-28T15:55:26.356Z,13.30
2019-02-28T15:57:56.564Z,13.13
2019-02-28T16:00:33.773Z,12.97
2019-02-28T16:03:02.434Z,12.87
2019-02-28T16:05:31.073Z,12.77
2019-02-28T16:08:00.805Z,12.70
2019-02-28T16:10:34.922Z,12.63
2019-02-28T16:13:05.168Z,12.56
2019-02-28T16:15:33.812Z,12.36
2019-02-28T16:18:02.444Z,12.23
2019-02-28T16:20:31.966Z,12.14
2019-02-28T16:23:01.418Z,12.10
2019-02-28T16:25:40.479Z,12.05
2019-02-28T16:28:09.419Z,11.93
2019-02-28T16:30:39.218Z,11.79
2019-02-28T16:33:07.811Z,11.76
2019-02-28T16:35:36.573Z,11.74
2019-02-28T16:38:06.580Z,11.67
2019-02-28T16:40:36.515Z,11.61
2019-02-28T16:43:05.147Z,11.54
2019-02-28T16:45:40.789Z,11.44
2019-02-28T16:48:11.689Z,11.37
2019-02-28T16:50:40.358Z,11.30
2019-02-28T16:53:14.816Z,11.26
2019-02-28T16:55:39.309Z,11.24
2019-02-28T16:58:07.878Z,11.19
2019-02-28T17:00:39.555Z,11.17
2019-02-28T17:03:07.319Z,11.12
2019-02-28T17:05:39.486Z,11.29
2019-02-28T17:08:08.202Z,11.17
2019-02-28T17:10:40.154Z,11.12
2019-02-28T17:13:13.000Z,11.13
2019-02-28T17:15:55.842Z,11.10
2019-02-28T17:18:27.347Z,11.03
2019-02-28T17:20:55.963Z,10.99
2019-02-28T17:23:24.581Z,10.91
2019-02-28T17:25:53.542Z,10.82
2019-02-28T17:28:41.450Z,10.68
2019-02-28T17:31:12.477Z,10.59
2019-02-28T17:33:43.404Z,10.53
2019-02-28T17:36:12.541Z,10.50
2019-02-28T17:38:41.276Z,10.47
2019-02-28T17:41:11.131Z,10.48
2019-02-28T17:43:40.878Z,10.47
2019-02-28T17:46:14.988Z,10.45
2019-02-28T17:48:52.697Z,10.44
2019-02-28T17:51:30.081Z,10.42
2019-02-28T17:54:07.529Z,10.38
2019-02-28T17:56:55.762Z,10.31
2019-02-28T17:59:51.452Z,10.32
2019-02-28T18:02:31.323Z,10.29
2019-02-28T18:05:29.719Z,10.21
2019-02-28T18:08:03.585Z,10.18
2019-02-28T18:10:59.175Z,10.13
2019-02-28T18:13:35.648Z,10.13
2019-02-28T18:16:42.048Z,10.14
2019-02-28T18:19:34.180Z,10.17
2019-02-28T18:22:24.941Z,10.17
2019-02-28T18:25:01.983Z,10.22
2019-02-28T18:27:36.483Z,10.20
2019-02-28T18:30:24.449Z,10.15
2019-02-28T18:32:53.070Z,10.14
2019-02-28T18:35:21.690Z,10.13
2019-02-28T18:37:50.533Z,10.12
2019-02-28T18:40:19.149Z,10.13
2019-02-28T18:42:47.797Z,10.10
2019-02-28T18:45:19.169Z,10.11
2019-02-28T18:47:46.809Z,10.07
2019-02-28T18:50:15.453Z,10.12
2019-02-28T18:52:44.116Z,10.09
2019-02-28T18:55:12.761Z,10.02
2019-02-28T18:57:41.410Z,10.02
2019-02-28T19:00:13.673Z,10.02
2019-02-28T19:02:42.324Z,10.01
2019-02-28T19:05:10.943Z,10.06
2019-02-28T19:07:39.550Z,10.01
2019-02-28T19:10:10.088Z,9.96
2019-02-28T19:12:38.695Z,9.98
2019-02-28T19:15:09.982Z,9.85
2019-02-28T19:17:38.455Z,9.83
2019-02-28T19:20:09.233Z,9.85
2019-02-28T19:22:37.883Z,9.82
2019-02-28T19:25:09.096Z,9.77
2019-02-28T19:27:37.672Z,9.71
2019-02-28T19:30:11.777Z,9.68
2019-02-28T19:32:40.350Z,9.59
2019-02-28T19:35:08.978Z,9.56
2019-02-28T19:37:37.618Z,9.51
2019-02-28T19:40:11.516Z,9.47
2019-02-28T19:42:40.078Z,9.43
2019-02-28T19:45:23.729Z,9.40
2019-02-28T19:47:52.215Z,9.40
2019-02-28T19:50:20.833Z,9.36
2019-02-28T19:52:49.437Z,9.32
2019-02-28T19:55:18.082Z,9.33
2019-02-28T19:57:46.720Z,9.31
2019-02-28T20:00:17.141Z,9.28
2019-02-28T20:02:45.807Z,9.27
2019-02-28T20:05:14.722Z,9.28
2019-02-28T20:07:43.328Z,9.29
2019-02-28T20:10:19.709Z,9.27
2019-02-28T20:12:48.346Z,9.30
2019-02-28T20:15:18.341Z,9.23
2019-02-28T20:17:46.965Z,9.23
2019-02-28T20:20:19.208Z,9.20
2019-02-28T20:22:47.737Z,9.22
2019-02-28T20:25:16.912Z,9.22
2019-02-28T20:27:45.537Z,9.23
2019-02-28T20:30:18.739Z,9.20
2019-02-28T20:32:47.383Z,9.20
2019-02-28T20:35:16.295Z,9.18
2019-02-28T20:37:44.959Z,9.18
2019-02-28T20:40:19.472Z,9.20
2019-02-28T20:42:48.046Z,9.19
2019-02-28T20:45:16.513Z,9.20
2019-02-28T20:47:45.055Z,9.17
2019-02-28T20:50:22.371Z,9.17
2019-02-28T20:52:51.051Z,9.18
2019-02-28T20:55:19.703Z,9.19
2019-02-28T20:57:48.268Z,9.19
2019-02-28T21:00:19.658Z,9.15
2019-02-28T21:02:48.204Z,9.12
2019-02-28T21:05:16.808Z,9.11
2019-02-28T21:07:45.304Z,9.05
2019-02-28T21:10:13.913Z,9.09
2019-02-28T21:12:42.552Z,9.02
2019-02-28T21:15:12.256Z,9.03
2019-02-28T21:17:40.904Z,9.02
2019-02-28T21:20:16.507Z,9.01
2019-02-28T21:22:45.136Z,8.97
2019-02-28T21:25:15.207Z,8.94
2019-02-28T21:27:43.761Z,8.92
2019-02-28T21:30:17.508Z,8.93
2019-02-28T21:32:46.120Z,8.95
2019-02-28T21:35:16.295Z,8.98
2019-02-28T21:37:46.317Z,8.95
2019-02-28T21:40:19.586Z,8.88
2019-02-28T21:42:48.125Z,8.89
2019-02-28T21:45:22.205Z,8.89
2019-02-28T21:47:50.836Z,8.90
2019-02-28T21:50:19.547Z,8.88
2019-02-28T21:52:48.248Z,8.86
2019-02-28T21:55:17.692Z,8.85
2019-02-28T21:57:46.340Z,8.83
2019-02-28T22:00:21.017Z,8.79
2019-02-28T22:02:49.516Z,8.79
2019-02-28T22:05:18.117Z,8.80
2019-02-28T22:07:46.625Z,8.82
2019-02-28T22:10:16.128Z,8.82
2019-02-28T22:12:44.738Z,8.78
2019-02-28T22:15:20.600Z,8.78
2019-02-28T22:17:49.236Z,8.74
2019-02-28T22:20:17.838Z,8.73
2019-02-28T22:22:46.479Z,8.71
2019-02-28T22:25:15.991Z,8.70
2019-02-28T22:27:44.635Z,8.70
2019-02-28T22:30:37.821Z,8.68
2019-02-28T22:33:08.072Z,8.62
2019-02-28T22:35:54.519Z,8.58
2019-02-28T22:38:23.083Z,8.57
2019-02-28T22:40:51.763Z,8.53
2019-02-28T22:43:20.239Z,8.43
2019-02-28T22:45:48.837Z,8.43
2019-02-28T22:48:17.486Z,8.36
2019-02-28T22:50:46.024Z,8.35
2019-02-28T22:53:14.597Z,8.37
2019-02-28T22:55:43.198Z,8.37
2019-02-28T22:58:12.239Z,8.34
2019-02-28T23:01:06.198Z,8.37
2019-02-28T23:03:36.085Z,8.41
2019-02-28T23:06:05.202Z,8.36
2019-02-28T23:08:33.844Z,8.34
2019-02-28T23:11:02.456Z,8.27
2019-02-28T23:13:31.079Z,8.26
2019-02-28T23:15:59.707Z,8.23
2019-02-28T23:18:28.355Z,8.19
2019-02-28T23:20:56.962Z,8.18
2019-02-28T23:23:25.572Z,8.20
2019-02-28T23:25:54.211Z,8.10
2019-02-28T23:28:34.997Z,8.09
2019-02-28T23:31:21.495Z,8.07
2019-02-28T23:33:50.043Z,8.06
2019-02-28T23:36:18.650Z,8.03
2019-02-28T23:38:47.230Z,8.02
2019-02-28T23:41:15.755Z,7.98
2019-02-28T23:43:44.261Z,8.00
2019-02-28T23:46:12.795Z,7.95
2019-02-28T23:48:42.433Z,7.94
2019-02-28T23:51:11.166Z,7.95
2019-02-28T23:53:39.808Z,7.91
2019-02-28T23:56:08.349Z,7.84
2019-02-28T23:58:36.814Z,7.82
